Time;durP1;ratioP1;P1;durP2;ratioP2;P2;SDS_P1;SDS_P2;PMS_P1;PMS_P2;Temp;Humidity;BMP_temperature;BMP_pressure;BME280_temperature;BME280_humidity;BME280_pressure;Samples;Min_cycle;Max_cycle;Signal;HPM_P1;HPM_P2
2023/04/19 00:00:53;;;;;;;12.40;5.30;;;;;;;24.37;25.06;100035.47;108267;1256;60273;-66
2023/04/19 00:03:23;;;;;;;12.60;5.40;;;;;;;23.47;26.00;100031.34;108272;1253;60343;-68
2023/04/19 00:05:53;;;;;;;9.80;4.80;;;;;;;23.39;26.12;100026.02;108211;1254;73921;-66
2023/04/19 00:08:22;;;;;;;12.30;4.60;;;;;;;23.25;26.52;100032.68;108244;1254;70073;-66
2023/04/19 00:10:50;;;;;;;12.00;4.80;;;;;;;23.12;26.58;100031.54;108179;1254;73861;-67
2023/04/19 00:13:19;;;;;;;13.10;4.30;;;;;;;23.03;26.42;100033.97;108239;1252;61765;-67
2023/04/19 00:15:47;;;;;;;14.70;5.10;;;;;;;23.02;26.63;100028.70;108204;1254;60747;-67
2023/04/19 00:18:15;;;;;;;13.50;4.80;;;;;;;22.80;26.85;100029.59;108284;1254;73341;-66
2023/04/19 00:20:43;;;;;;;7.20;4.10;;;;;;;22.92;26.78;100026.71;108402;1254;70373;-66
2023/04/19 00:23:12;;;;;;;12.30;5.00;;;;;;;22.77;27.00;100025.16;108418;1255;73770;-67
2023/04/19 00:28:43;;;;;;;11.40;5.10;;;;;;;18.97;31.75;100034.40;104847;1292;600215;-66
2023/04/19 00:31:11;;;;;;;13.50;5.30;;;;;;;20.57;29.63;100031.29;107491;1264;60791;-65
2023/04/19 00:33:39;;;;;;;11.80;4.70;;;;;;;21.13;28.98;100021.89;107428;1264;59986;-66
2023/04/19 00:36:08;;;;;;;10.60;5.50;;;;;;;21.32;28.76;100019.49;107428;1269;71672;-66
2023/04/19 00:38:36;;;;;;;13.50;5.40;;;;;;;21.75;28.21;100017.83;107480;1264;69548;-67
2023/04/19 00:41:04;;;;;;;14.00;5.50;;;;;;;21.96;27.91;100009.08;107332;1264;71893;-68
2023/04/19 00:43:32;;;;;;;18.60;5.50;;;;;;;22.08;27.88;100012.45;107295;1264;167459;-68
2023/04/19 00:46:00;;;;;;;13.00;5.10;;;;;;;21.94;27.98;100010.80;107457;1264;59858;-67
2023/04/19 00:48:29;;;;;;;13.20;6.00;;;;;;;22.22;27.64;100010.72;107436;1264;73521;-67
2023/04/19 00:50:57;;;;;;;11.60;5.10;;;;;;;22.18;27.65;100011.60;107488;1264;70044;-66
2023/04/19 00:53:25;;;;;;;12.70;5.10;;;;;;;22.36;27.42;100006.80;107771;1257;73829;-66
2023/04/19 00:55:53;;;;;;;13.10;4.80;;;;;;;22.19;27.60;100003.27;107778;1256;60351;-64
2023/04/19 00:58:22;;;;;;;13.10;6.00;;;;;;;22.02;27.76;100006.39;107800;1257;60132;-66
2023/04/19 01:00:50;;;;;;;10.20;4.80;;;;;;;22.33;27.45;99996.50;107946;1257;72273;-66
2023/04/19 01:03:21;;;;;;;13.30;5.20;;;;;;;21.74;28.09;99996.46;107855;1257;72144;-66
2023/04/19 01:05:51;;;;;;;13.20;5.60;;;;;;;21.38;28.42;99995.34;107846;1257;72121;-67
2023/04/19 01:08:20;;;;;;;10.80;5.60;;;;;;;21.68;28.26;99990.67;107893;1257;62464;-67
2023/04/19 01:10:48;;;;;;;12.00;5.10;;;;;;;21.86;28.09;99989.85;107827;1257;61345;-66
2023/04/19 01:13:16;;;;;;;10.40;5.50;;;;;;;22.22;27.67;99982.64;107842;1257;73208;-66
2023/04/19 01:15:44;;;;;;;16.10;5.50;;;;;;;22.15;27.86;99986.30;107843;1257;69628;-66
2023/04/19 01:18:12;;;;;;;12.10;5.00;;;;;;;22.00;27.87;99982.75;107844;1257;73668;-65
2023/04/19 01:20:42;;;;;;;9.20;5.00;;;;;;;22.18;27.82;99979.45;107822;1257;60434;-65
2023/04/19 01:23:11;;;;;;;11.20;6.00;;;;;;;22.20;27.75;99978.90;107636;1257;59805;-66
2023/04/19 01:25:39;;;;;;;10.90;4.60;;;;;;;22.17;27.72;99979.89;107806;1261;73254;-65
2023/04/19 01:28:07;;;;;;;11.50;5.70;;;;;;;22.15;27.82;99980.06;107846;1260;70956;-66
2023/04/19 01:30:35;;;;;;;14.50;6.00;;;;;;;22.08;27.82;99982.98;107850;1257;72587;-66
2023/04/19 01:33:03;;;;;;;13.50;6.00;;;;;;;21.43;28.52;99986.07;107844;1257;59862;-67
2023/04/19 01:35:33;;;;;;;12.20;5.60;;;;;;;21.76;28.32;99979.45;107870;1257;60436;-67
2023/04/19 01:38:01;;;;;;;14.90;5.40;;;;;;;21.90;27.91;99978.09;107856;1257;74285;-66
2023/04/19 01:40:29;;;;;;;11.70;5.30;;;;;;;21.27;28.80;99978.85;107748;1257;70840;-65
2023/04/19 01:42:58;;;;;;;11.20;5.60;;;;;;;21.24;29.01;99976.55;107778;1257;73417;-67
2023/04/19 01:45:26;;;;;;;10.90;5.40;;;;;;;21.21;28.97;99978.08;107753;1261;61629;-66
2023/04/19 01:47:54;;;;;;;11.90;5.80;;;;;;;21.36;28.96;99976.09;107748;1257;59489;-65
2023/04/19 01:50:22;;;;;;;11.10;4.90;;;;;;;21.56;28.63;99972.11;107896;1255;72572;-67
2023/04/19 01:52:50;;;;;;;11.20;5.70;;;;;;;21.36;28.97;99971.95;108013;1257;70064;-65
2023/04/19 01:55:18;;;;;;;14.90;6.80;;;;;;;21.34;28.97;99968.95;108034;1254;72666;-66
2023/04/19 01:57:46;;;;;;;13.70;5.70;;;;;;;21.32;28.99;99966.42;108221;1251;62414;-66
2023/04/19 02:00:16;;;;;;;18.20;7.50;;;;;;;21.28;29.43;99966.37;108218;1256;59740;-67
2023/04/19 02:02:47;;;;;;;18.10;6.80;;;;;;;21.22;29.55;99967.85;108258;1252;72102;-69
2023/04/19 02:05:15;;;;;;;18.20;6.60;;;;;;;21.38;29.34;99967.37;108262;1254;69944;-66
2023/04/19 02:07:43;;;;;;;21.10;7.40;;;;;;;21.43;29.30;99968.23;108143;1253;71553;-65
2023/04/19 02:10:11;;;;;;;10.40;5.10;;;;;;;21.62;29.09;99965.46;108225;1254;60727;-66
2023/04/19 02:12:41;;;;;;;17.80;6.70;;;;;;;21.42;29.44;99963.86;108222;1256;60536;-66
2023/04/19 02:15:09;;;;;;;18.20;6.80;;;;;;;21.57;29.26;99957.91;108126;1259;72603;-66
2023/04/19 02:17:37;;;;;;;17.70;7.00;;;;;;;21.44;29.31;99958.67;108127;1254;70169;-66
2023/04/19 02:20:07;;;;;;;16.10;7.50;;;;;;;21.35;29.48;99957.75;108327;1254;71796;-64
2023/04/19 02:22:35;;;;;;;19.00;7.10;;;;;;;21.42;29.37;99953.38;108168;1251;61886;-65
2023/04/19 02:25:04;;;;;;;14.20;6.20;;;;;;;21.41;29.59;99957.48;108259;1254;60307;-67
2023/04/19 02:27:33;;;;;;;17.40;7.60;;;;;;;21.41;29.59;99956.02;108332;1254;73112;-66
2023/04/19 02:30:01;;;;;;;17.60;6.70;;;;;;;21.52;29.46;99957.23;108187;1254;70503;-64
2023/04/19 02:32:31;;;;;;;15.50;6.10;;;;;;;21.46;29.53;99960.27;108305;1253;72853;-66
2023/04/19 02:34:59;;;;;;;16.80;6.30;;;;;;;21.41;29.72;99958.68;108254;1255;61041;-67
2023/04/19 02:37:29;;;;;;;15.30;6.70;;;;;;;21.32;29.71;99957.49;108136;1251;59850;-67
2023/04/19 02:39:57;;;;;;;18.40;7.40;;;;;;;21.18;29.87;99958.88;108279;1254;72120;-67
2023/04/19 02:42:27;;;;;;;13.40;6.90;;;;;;;21.13;29.89;99960.31;108248;1254;71522;-66
2023/04/19 02:44:55;;;;;;;11.30;6.30;;;;;;;21.27;29.75;99957.96;108034;1254;71893;-67
2023/04/19 02:47:24;;;;;;;12.20;6.00;;;;;;;21.23;29.79;99958.41;108196;1253;59810;-67
2023/04/19 02:49:52;;;;;;;12.10;5.70;;;;;;;21.27;29.78;99958.46;108232;1252;61072;-66
2023/04/19 02:52:20;;;;;;;15.30;6.20;;;;;;;21.28;29.84;99960.48;108216;1255;74012;-66
2023/04/19 02:54:48;;;;;;;12.70;5.90;;;;;;;21.32;29.73;99963.94;108233;1254;69217;-66
2023/04/19 02:57:16;;;;;;;10.60;5.60;;;;;;;21.51;29.47;99964.29;108076;1258;72577;-66
2023/04/19 02:59:44;;;;;;;15.30;6.00;;;;;;;21.57;29.46;99964.70;108178;1253;62362;-66
2023/04/19 03:02:12;;;;;;;16.50;6.20;;;;;;;21.70;29.17;99968.93;108131;1254;59618;-66
2023/04/19 03:04:42;;;;;;;17.20;6.20;;;;;;;21.86;29.00;99966.83;108120;1254;73319;-66
2023/04/19 03:07:12;;;;;;;11.10;5.20;;;;;;;21.72;29.03;99964.84;108049;1258;71811;-66
2023/04/19 03:09:41;;;;;;;12.50;5.30;;;;;;;20.90;29.83;99962.56;108123;1252;73575;-68
2023/04/19 03:12:09;;;;;;;11.50;5.90;;;;;;;20.84;30.14;99966.31;108178;1254;60345;-67
2023/04/19 03:14:38;;;;;;;10.40;5.40;;;;;;;20.71;30.27;99966.66;108163;1254;60567;-67
2023/04/19 03:17:06;;;;;;;14.00;5.30;;;;;;;20.76;30.33;99963.36;108062;1258;71546;-65
2023/04/19 03:19:36;;;;;;;15.10;6.00;;;;;;;20.66;30.32;99966.70;108139;1256;70509;-67
2023/04/19 03:22:05;;;;;;;10.00;5.00;;;;;;;20.47;30.76;99963.61;108132;1255;70437;-67
2023/04/19 03:24:33;;;;;;;11.60;6.20;;;;;;;20.66;30.79;99964.90;108187;1256;61252;-67
2023/04/19 03:27:15;;;;;;;14.50;5.60;;;;;;;20.61;31.03;99956.60;108190;1253;59914;-67
2023/04/19 03:29:44;;;;;;;8.40;5.10;;;;;;;21.06;30.58;99956.83;108095;1254;72360;-64
2023/04/19 03:32:15;;;;;;;;;;;;;;;21.60;30.16;99948.55;108060;1254;70224;-66
2023/04/19 03:34:43;;;;;;;15.60;6.20;;;;;;;21.94;29.80;99947.55;108053;1253;72701;-66
2023/04/19 03:37:11;;;;;;;17.80;7.30;;;;;;;22.22;29.45;99948.31;108122;1253;59749;-67
2023/04/19 03:39:41;;;;;;;16.20;8.20;;;;;;;22.53;28.79;99947.88;107975;1259;60462;-67
2023/04/19 03:42:13;;;;;;;16.80;8.00;;;;;;;22.79;28.63;99948.03;108152;1255;74178;-67
2023/04/19 03:44:49;;;;;;;13.60;7.00;;;;;;;23.03;28.52;99938.51;108046;1254;69471;-67
2023/04/19 03:47:17;;;;;;;21.90;8.90;;;;;;;23.19;28.24;99940.60;108095;1257;73695;-65
2023/04/19 03:49:47;;;;;;;17.10;6.70;;;;;;;23.23;27.97;99944.73;108010;1254;61223;-66
2023/04/19 03:52:17;;;;;;;13.80;5.70;;;;;;;23.37;27.74;99944.17;108118;1253;59989;-67
2023/04/19 03:54:45;;;;;;;14.10;5.60;;;;;;;23.60;27.53;99943.40;108134;1256;73241;-65
2023/04/19 03:57:24;;;;;;;9.90;4.80;;;;;;;23.89;26.78;99944.61;108267;1254;71283;-68
2023/04/19 03:59:53;;;;;;;10.90;6.10;;;;;;;24.38;26.09;99937.09;108219;1255;73605;-67
2023/04/19 04:02:21;;;;;;;12.60;5.00;;;;;;;24.57;25.64;99939.91;108072;1255;62246;-64
2023/04/19 04:04:53;;;;;;;10.10;5.10;;;;;;;24.41;25.21;99936.92;108093;1252;60379;-66
2023/04/19 04:07:23;;;;;;;10.90;5.80;;;;;;;24.78;24.91;99937.59;108114;1254;73271;-65
2023/04/19 04:09:51;;;;;;;11.20;5.40;;;;;;;25.09;24.76;99938.81;108222;1254;70476;-66
2023/04/19 04:12:19;;;;;;;9.30;5.00;;;;;;;26.00;24.31;99938.30;108081;1252;71741;-66
2023/04/19 04:14:48;;;;;;;15.90;5.30;;;;;;;27.06;23.13;99937.95;108221;1256;59760;-67
2023/04/19 04:17:16;;;;;;;9.80;4.80;;;;;;;27.07;22.53;99937.33;108185;1254;60366;-67
2023/04/19 04:19:44;;;;;;;16.20;5.70;;;;;;;27.00;22.37;99934.11;108083;1254;73384;-66
2023/04/19 04:22:13;;;;;;;12.40;4.90;;;;;;;26.90;22.08;99934.70;108206;1256;71089;-66
2023/04/19 04:24:42;;;;;;;14.00;4.20;;;;;;;26.44;22.55;99934.98;108068;1254;72777;-67
2023/04/19 04:27:23;;;;;;;13.70;4.70;;;;;;;26.20;22.82;99934.28;108035;1254;60806;-66
2023/04/19 04:29:53;;;;;;;10.20;4.70;;;;;;;26.02;22.94;99931.61;108216;1253;59851;-66
2023/04/19 04:32:22;;;;;;;10.20;4.80;;;;;;;26.32;22.71;99927.41;108100;1252;71747;-66
2023/04/19 04:34:54;;;;;;;10.50;4.90;;;;;;;27.44;21.37;99927.70;108163;1254;71613;-65
2023/04/19 04:37:30;;;;;;;10.00;4.90;;;;;;;27.54;21.38;99929.98;108130;1255;73743;-67
2023/04/19 04:40:00;;;;;;;12.20;5.60;;;;;;;27.07;21.45;99926.54;108232;1254;60258;-68
2023/04/19 04:42:30;;;;;;;12.90;6.20;;;;;;;27.66;21.13;99928.69;108139;1254;60139;-67
2023/04/19 04:45:00;;;;;;;14.10;5.40;;;;;;;28.09;20.64;99926.94;108335;1256;73371;-65
2023/04/19 04:47:31;;;;;;;9.00;5.00;;;;;;;27.94;20.66;99933.50;108133;1254;69331;-67
2023/04/19 04:50:01;;;;;;;;;;;;;;;28.44;20.42;99927.95;108263;1254;71986;-66
2023/04/19 04:52:29;;;;;;;9.50;5.40;;;;;;;28.67;20.28;99932.17;108149;1252;60415;-66
2023/04/19 04:55:27;;;;;;;11.50;5.20;;;;;;;28.79;20.08;99934.23;108065;1254;60283;-67
2023/04/19 04:57:55;;;;;;;10.40;5.40;;;;;;;29.06;19.89;99938.42;108046;1257;74514;-66
2023/04/19 05:00:29;;;;;;;8.00;4.40;;;;;;;29.46;19.55;99933.73;108062;1254;70136;-67
2023/04/19 05:03:03;;;;;;;16.10;6.10;;;;;;;29.20;19.70;99930.89;108252;1252;73539;-68
2023/04/19 05:05:35;;;;;;;10.40;5.10;;;;;;;29.58;19.59;99929.61;108308;1254;61562;-66
2023/04/19 05:08:03;;;;;;;13.60;4.70;;;;;;;29.64;19.34;99933.42;108134;1253;60630;-67
2023/04/19 05:10:31;;;;;;;7.10;4.00;;;;;;;29.83;19.40;99932.14;108257;1253;73419;-67
2023/04/19 05:13:04;;;;;;;11.90;4.40;;;;;;;30.05;19.20;99934.79;108267;1257;69220;-67
2023/04/19 05:15:33;;;;;;;15.40;4.40;;;;;;;30.08;18.99;99934.79;108167;1257;72974;-68
2023/04/19 05:18:01;;;;;;;15.70;4.80;;;;;;;29.98;19.01;99933.80;108278;1253;60427;-68
2023/04/19 05:20:29;;;;;;;12.10;4.80;;;;;;;30.47;18.86;99938.52;108301;1254;60310;-68
2023/04/19 05:23:12;;;;;;;14.60;4.60;;;;;;;29.96;18.99;99933.65;108315;1254;72320;-67
2023/04/19 05:25:41;;;;;;;16.60;5.20;;;;;;;30.54;18.67;99934.29;108264;1253;71627;-67
2023/04/19 05:28:10;;;;;;;15.90;5.10;;;;;;;30.51;18.49;99935.67;108140;1257;73182;-68
2023/04/19 05:31:01;;;;;;;;;;;;;;;30.86;18.42;99938.68;108244;1254;60450;-68
2023/04/19 05:33:33;;;;;;;22.80;5.60;;;;;;;30.33;18.75;99943.95;108123;1254;60434;-69
2023/04/19 05:36:01;;;;;;;22.70;5.50;;;;;;;30.66;18.52;99950.92;108183;1257;73641;-68
2023/04/19 05:38:30;;;;;;;25.40;5.70;;;;;;;29.87;19.15;99953.93;108281;1254;70870;-68
2023/04/19 05:40:58;;;;;;;25.90;5.30;;;;;;;29.97;19.23;99954.47;108246;1256;73866;-66
2023/04/19 05:43:26;;;;;;;27.40;5.20;;;;;;;29.79;19.50;99950.62;108097;1257;60167;-67
2023/04/19 05:45:55;;;;;;;21.20;5.60;;;;;;;29.16;19.83;99952.06;108203;1254;60860;-67
2023/04/19 05:48:24;;;;;;;14.30;5.20;;;;;;;28.70;20.27;99954.57;108095;1255;74113;-67
2023/04/19 05:50:59;;;;;;;19.70;5.00;;;;;;;28.27;21.00;99960.63;108207;1253;71306;-67
2023/04/19 05:53:53;;;;;;;24.00;5.70;;;;;;;27.91;21.45;99962.33;108119;1253;73658;-68
2023/04/19 05:56:25;;;;;;;17.10;5.20;;;;;;;27.88;21.69;99963.31;108286;1253;60286;-67
2023/04/19 05:58:55;;;;;;;19.70;5.80;;;;;;;27.82;21.82;99964.20;108083;1254;60602;-66
2023/04/19 06:01:23;;;;;;;13.10;5.10;;;;;;;28.08;21.97;99962.59;108073;1253;73568;-65
2023/04/19 06:03:51;;;;;;;25.50;6.30;;;;;;;28.78;21.33;99959.31;108225;1253;68145;-67
2023/04/19 06:06:21;;;;;;;28.00;6.40;;;;;;;29.16;20.97;99952.62;108199;1254;72673;-67
2023/04/19 06:08:49;;;;;;;23.40;5.00;;;;;;;29.51;20.96;99951.75;108224;1254;60271;-67
2023/04/19 06:11:21;;;;;;;20.70;5.90;;;;;;;30.26;20.07;99946.42;108072;1253;60280;-68
2023/04/19 06:14:05;;;;;;;30.20;6.10;;;;;;;31.10;19.59;99944.88;108186;1254;72334;-65
2023/04/19 06:16:33;;;;;;;22.90;4.80;;;;;;;31.51;19.06;99947.67;108094;1257;71406;-66
2023/04/19 06:19:02;;;;;;;13.70;4.00;;;;;;;32.61;18.15;99941.62;108238;1252;73796;-67
2023/04/19 06:21:30;;;;;;;13.40;4.00;;;;;;;32.63;18.03;99934.70;108044;1254;60437;-67
2023/04/19 06:23:59;;;;;;;10.50;3.80;;;;;;;32.87;18.18;99934.79;108252;1256;60401;-66
2023/04/19 06:26:27;;;;;;;20.20;4.60;;;;;;;33.17;17.69;99936.95;108241;1256;75301;-69
2023/04/19 06:28:55;;;;;;;13.10;3.90;;;;;;;32.98;17.63;99938.20;108132;1254;71833;-67
2023/04/19 06:31:23;;;;;;;15.60;3.60;;;;;;;33.07;17.70;99939.31;108311;1254;73383;-68
2023/04/19 06:33:51;;;;;;;14.00;3.70;;;;;;;33.49;17.07;99936.94;108303;1253;60418;-65
2023/04/19 06:36:19;;;;;;;20.70;4.00;;;;;;;33.48;17.13;99939.17;108298;1252;61045;-67
2023/04/19 06:38:48;;;;;;;11.00;3.20;;;;;;;32.92;17.58;99938.45;108351;1254;74810;-66
2023/04/19 06:41:16;;;;;;;16.10;3.60;;;;;;;33.26;17.52;99936.20;108276;1254;69312;-67
2023/04/19 06:43:45;;;;;;;10.80;3.70;;;;;;;33.52;17.31;99933.21;108227;1252;73587;-67
2023/04/19 06:46:14;;;;;;;17.80;3.40;;;;;;;33.85;17.16;99933.76;108272;1256;60922;-68
2023/04/19 06:48:42;;;;;;;11.00;3.40;;;;;;;34.56;16.88;99926.53;108288;1255;60620;-67
2023/04/19 06:51:11;;;;;;;13.40;3.10;;;;;;;35.10;16.32;99924.86;108273;1252;66222;-68
2023/04/19 06:53:39;;;;;;;12.80;3.90;;;;;;;34.18;17.14;99927.41;108318;1254;70626;-67
2023/04/19 06:56:07;;;;;;;14.00;3.80;;;;;;;34.28;16.94;99928.19;108316;1254;64289;-68
2023/04/19 06:58:35;;;;;;;16.70;4.20;;;;;;;35.05;16.48;99922.84;108251;1253;60294;-67
2023/04/19 07:01:03;;;;;;;15.40;3.50;;;;;;;34.68;16.64;99926.25;108352;1252;60264;-68
2023/04/19 07:03:31;;;;;;;10.60;3.20;;;;;;;35.25;16.25;99925.52;108376;1253;73924;-67
2023/04/19 07:06:00;;;;;;;17.60;4.00;;;;;;;35.31;16.11;99923.67;108339;1256;62462;-68
2023/04/19 07:08:28;;;;;;;15.30;3.40;;;;;;;35.28;16.27;99926.48;108331;1254;62597;-67
2023/04/19 07:11:15;;;;;;;16.60;3.50;;;;;;;35.52;16.26;99925.09;108333;1257;59145;-67
2023/04/19 07:13:43;;;;;;;12.70;3.60;;;;;;;35.36;16.15;99923.75;108343;1254;60348;-68
2023/04/19 07:16:13;;;;;;;16.20;4.30;;;;;;;35.27;16.34;99923.36;108284;1253;66196;-67
2023/04/19 07:18:42;;;;;;;13.20;3.50;;;;;;;35.54;16.33;99926.55;108270;1256;63227;-68
2023/04/19 07:21:10;;;;;;;17.40;4.20;;;;;;;35.40;16.81;99921.65;108270;1254;63743;-68
2023/04/19 07:23:39;;;;;;;8.50;3.60;;;;;;;35.45;16.80;99924.08;108274;1254;60232;-68
2023/04/19 07:26:07;;;;;;;13.30;4.00;;;;;;;35.20;16.89;99921.78;108267;1254;60441;-68
2023/04/19 07:28:34;;;;;;;11.20;4.00;;;;;;;35.30;16.91;99923.27;108293;1253;66210;-69
2023/04/19 07:31:02;;;;;;;16.70;3.80;;;;;;;35.33;16.82;99927.55;108303;1254;62332;-67
2023/04/19 07:33:31;;;;;;;17.30;4.10;;;;;;;35.43;16.71;99927.28;108216;1257;72120;-67
2023/04/19 07:35:59;;;;;;;18.00;3.70;;;;;;;35.44;16.47;99928.15;108226;1253;60283;-67
2023/04/19 07:38:28;;;;;;;12.30;3.80;;;;;;;34.32;17.14;99925.89;108329;1253;61542;-68
2023/04/19 07:40:56;;;;;;;20.20;3.40;;;;;;;34.83;16.88;99924.20;108241;1253;73778;-67
2023/04/19 07:43:24;;;;;;;13.40;3.30;;;;;;;34.12;17.44;99923.63;108188;1252;70678;-67
2023/04/19 07:45:53;;;;;;;14.60;3.60;;;;;;;33.84;17.23;99928.09;108252;1257;73096;-66
2023/04/19 07:48:21;;;;;;;22.60;4.20;;;;;;;33.63;17.72;99928.81;108191;1256;61400;-68
2023/04/19 07:50:49;;;;;;;24.40;5.50;;;;;;;34.56;17.22;99920.15;108205;1252;60223;-69
2023/04/19 07:53:17;;;;;;;22.20;4.40;;;;;;;34.83;17.21;99920.08;108229;1253;65170;-68
2023/04/19 07:55:45;;;;;;;13.20;3.40;;;;;;;34.73;17.34;99916.04;108230;1254;71369;-67
2023/04/19 07:58:13;;;;;;;13.20;3.30;;;;;;;35.36;16.73;99917.44;108261;1253;73871;-68
2023/04/19 08:00:41;;;;;;;9.30;3.10;;;;;;;35.43;16.75;99915.80;108317;1251;60331;-68
2023/04/19 08:03:09;;;;;;;13.50;3.50;;;;;;;35.55;16.74;99914.98;108183;1254;60371;-67
2023/04/19 08:05:38;;;;;;;15.60;3.30;;;;;;;35.20;16.92;99911.56;108180;1254;66178;-69
2023/04/19 08:08:06;;;;;;;17.30;3.50;;;;;;;34.94;17.19;99917.86;108349;1254;61363;-69
2023/04/19 08:10:35;;;;;;;16.70;3.30;;;;;;;34.64;17.27;99912.95;108298;1254;72426;-69
2023/04/19 08:13:03;;;;;;;20.20;4.00;;;;;;;34.81;17.31;99906.96;108325;1253;60415;-68
2023/04/19 08:15:34;;;;;;;20.50;4.00;;;;;;;35.16;16.78;99907.77;108285;1253;60300;-68
2023/04/19 08:18:05;;;;;;;19.50;3.40;;;;;;;35.28;16.90;99902.93;108317;1253;72919;-69
2023/04/19 08:20:33;;;;;;;16.20;3.20;;;;;;;35.40;16.59;99905.98;108379;1254;62725;-68
2023/04/19 08:23:01;;;;;;;20.70;3.40;;;;;;;35.24;16.42;99904.23;108272;1253;71319;-68
2023/04/19 08:25:48;;;;;;;21.70;4.10;;;;;;;35.11;16.90;99904.80;108231;1253;60536;-68
2023/04/19 08:28:17;;;;;;;16.10;4.20;;;;;;;35.38;16.80;99902.30;108277;1253;60280;-68
2023/04/19 08:30:45;;;;;;;13.90;3.30;;;;;;;35.93;16.66;99901.52;108255;1254;66401;-68
2023/04/19 08:33:13;;;;;;;16.50;4.10;;;;;;;36.13;16.57;99905.52;108089;1254;62500;-67
2023/04/19 08:35:41;;;;;;;20.70;3.20;;;;;;;35.63;16.41;99903.73;108228;1252;65279;-68
2023/04/19 08:38:09;;;;;;;17.70;3.20;;;;;;;35.04;16.99;99898.20;108239;1251;60084;-69
2023/04/19 08:40:44;;;;;;;21.00;3.80;;;;;;;34.99;16.98;99895.06;108258;1253;60341;-67
2023/04/19 08:43:12;;;;;;;20.80;3.90;;;;;;;35.20;16.88;99895.17;108237;1256;66096;-68
2023/04/19 08:45:40;;;;;;;28.10;3.40;;;;;;;35.21;16.56;99897.34;108343;1254;62750;-69
2023/04/19 08:48:10;;;;;;;23.90;4.10;;;;;;;35.25;16.68;99894.08;108165;1252;65213;-68
2023/04/19 08:50:40;;;;;;;12.80;3.50;;;;;;;35.32;16.89;99895.60;108226;1254;59190;-69
2023/04/19 08:53:28;;;;;;;22.20;3.90;;;;;;;34.55;17.61;99899.54;108178;1254;60335;-69
2023/04/19 08:55:58;;;;;;;21.40;3.10;;;;;;;35.10;17.37;99904.04;108321;1254;64849;-68
2023/04/19 08:58:32;;;;;;;22.30;2.90;;;;;;;35.71;16.63;99909.08;108169;1254;62729;-69
2023/04/19 09:01:20;;;;;;;22.70;4.00;;;;;;;35.42;16.60;99906.35;108327;1254;65687;-70
2023/04/19 09:03:51;;;;;;;27.10;3.80;;;;;;;35.62;16.68;99903.08;108375;1254;59551;-67
2023/04/19 09:06:37;;;;;;;27.60;3.40;;;;;;;35.92;16.79;99900.27;108310;1253;60315;-68
2023/04/19 09:09:22;;;;;;;23.80;3.10;;;;;;;35.95;16.66;99900.67;108320;1253;66686;-67
2023/04/19 09:12:16;;;;;;;20.00;3.50;;;;;;;36.25;16.55;99902.31;108259;1254;63221;-67
2023/04/19 09:14:46;;;;;;;26.20;3.10;;;;;;;36.42;16.16;99898.08;108235;1254;64061;-67
2023/04/19 09:17:20;;;;;;;17.70;3.00;;;;;;;36.36;16.14;99894.51;108104;1252;60376;-69
2023/04/19 09:19:48;;;;;;;18.80;3.00;;;;;;;36.16;15.98;99895.14;108311;1254;60299;-68
2023/04/19 09:22:17;;;;;;;23.40;3.00;;;;;;;35.87;16.30;99893.90;108397;1254;66344;-67
2023/04/19 09:24:45;;;;;;;30.10;3.50;;;;;;;35.35;16.43;99892.34;108326;1254;61925;-67
2023/04/19 09:27:35;;;;;;;21.80;3.10;;;;;;;34.93;17.07;99889.89;108331;1254;64996;-69
2023/04/19 09:30:05;;;;;;;23.80;3.60;;;;;;;35.15;17.08;99898.20;108359;1253;60226;-69
2023/04/19 09:32:47;;;;;;;21.40;3.80;;;;;;;35.09;16.83;99896.13;108415;1253;60264;-68
2023/04/19 09:35:16;;;;;;;19.60;3.60;;;;;;;34.78;17.07;99893.70;108409;1254;64939;-67
2023/04/19 09:37:58;;;;;;;26.40;3.30;;;;;;;34.84;17.01;99895.98;108365;1253;62376;-68
2023/04/19 09:40:34;;;;;;;23.90;2.90;;;;;;;34.93;16.96;99896.62;108357;1253;64071;-68
2023/04/19 09:43:02;;;;;;;26.50;3.50;;;;;;;34.67;16.85;99900.33;108339;1253;60755;-67
2023/04/19 09:45:50;;;;;;;32.40;4.00;;;;;;;35.03;16.38;99895.94;108273;1256;60216;-68
2023/04/19 09:48:18;;;;;;;34.50;3.60;;;;;;;35.34;16.01;99900.77;108335;1254;66119;-68
2023/04/19 09:50:50;;;;;;;37.60;5.20;;;;;;;34.56;16.58;99899.90;108323;1254;62459;-68
2023/04/19 09:53:31;;;;;;;36.20;4.20;;;;;;;33.98;16.94;99901.83;108337;1254;65045;-67
2023/04/19 09:56:00;;;;;;;55.50;6.50;;;;;;;34.19;16.92;99901.85;108270;1252;60727;-68
2023/04/19 09:58:31;;;;;;;28.80;4.20;;;;;;;34.87;16.54;99897.51;108148;1253;60414;-68
2023/04/19 10:01:15;;;;;;;31.90;4.70;;;;;;;34.99;16.49;99896.96;108336;1254;67444;-68
2023/04/19 10:03:45;;;;;;;26.00;3.30;;;;;;;35.25;16.56;99892.14;108236;1254;70376;-67
2023/04/19 10:06:17;;;;;;;39.50;4.00;;;;;;;35.04;16.56;99891.02;108238;1254;64104;-69
2023/04/19 10:08:49;;;;;;;36.80;4.00;;;;;;;34.67;16.89;99885.94;108367;1257;60337;-67
2023/04/19 10:11:20;;;;;;;40.60;4.20;;;;;;;34.61;16.88;99889.77;108199;1251;60439;-68
2023/04/19 10:13:53;;;;;;;39.50;4.20;;;;;;;34.53;16.85;99894.38;108335;1252;66010;-68
2023/04/19 10:16:21;;;;;;;22.40;3.30;;;;;;;34.13;17.14;99893.30;108356;1254;62803;-67
2023/04/19 10:18:49;;;;;;;35.40;4.00;;;;;;;34.17;17.44;99889.46;108186;1254;65092;-68
2023/04/19 10:21:18;;;;;;;26.70;4.30;;;;;;;33.69;17.98;99899.77;108287;1253;61286;-67
2023/04/19 10:23:46;;;;;;;30.90;3.80;;;;;;;33.94;17.83;99893.91;107959;1253;60752;-69
2023/04/19 10:26:14;;;;;;;26.10;4.10;;;;;;;34.14;17.93;99891.66;108104;1252;65364;-68
2023/04/19 10:28:43;;;;;;;31.40;4.10;;;;;;;34.00;17.83;99894.83;108183;1254;69745;-67
2023/04/19 10:31:14;;;;;;;27.90;3.90;;;;;;;34.26;17.68;99894.48;108201;1254;72550;-68
2023/04/19 10:33:43;;;;;;;34.00;4.40;;;;;;;34.35;17.59;99894.18;108269;1252;59230;-69
2023/04/19 10:36:13;;;;;;;30.30;3.30;;;;;;;34.36;17.60;99894.71;108251;1256;60292;-68
2023/04/19 10:38:43;;;;;;;39.00;4.80;;;;;;;34.17;17.83;99894.34;108304;1253;72910;-68
2023/04/19 10:41:13;;;;;;;24.70;3.90;;;;;;;33.52;18.19;99896.20;108321;1254;70879;-69
2023/04/19 10:44:07;;;;;;;41.20;4.10;;;;;;;33.59;18.27;99896.97;108330;1252;71399;-67
2023/04/19 10:46:36;;;;;;;40.90;5.40;;;;;;;33.86;17.99;99898.84;108254;1254;60479;-68
2023/04/19 10:49:05;;;;;;;38.60;5.90;;;;;;;33.77;18.11;99902.81;108280;1253;59798;-67
2023/04/19 10:51:43;;;;;;;55.80;6.30;;;;;;;33.82;18.02;99904.27;108251;1254;66113;-68
2023/04/19 10:54:31;;;;;;;61.70;5.40;;;;;;;34.03;17.78;99913.38;108091;1254;62089;-67
2023/04/19 10:57:05;;;;;;;42.50;4.90;;;;;;;33.65;17.77;99916.55;108210;1254;74397;-68
2023/04/19 10:59:34;;;;;;;45.90;5.00;;;;;;;33.57;18.20;99916.38;108135;1253;60303;-67
2023/04/19 11:02:03;;;;;;;36.40;5.10;;;;;;;33.39;18.59;99916.45;108303;1253;60296;-68
2023/04/19 11:04:32;;;;;;;48.00;5.00;;;;;;;33.53;18.43;99920.49;108186;1254;74690;-67
2023/04/19 11:07:04;;;;;;;38.90;5.40;;;;;;;33.60;18.62;99918.81;108210;1254;70906;-67
2023/04/19 11:09:41;;;;;;;54.10;6.00;;;;;;;33.34;18.54;99927.09;108240;1253;64011;-67
2023/04/19 11:12:19;;;;;;;36.80;4.30;;;;;;;33.18;18.73;99925.98;108179;1254;61385;-68
2023/04/19 11:14:52;;;;;;;42.20;5.40;;;;;;;32.90;19.38;99922.75;108179;1253;60143;-68
2023/04/19 11:17:25;;;;;;;34.70;4.70;;;;;;;32.37;19.96;99925.02;108246;1254;73304;-68
2023/04/19 11:20:08;;;;;;;36.00;4.70;;;;;;;32.78;19.49;99927.71;108270;1254;71622;-67
2023/04/19 11:22:41;;;;;;;34.80;5.20;;;;;;;33.12;19.29;99925.39;108174;1253;73271;-68
2023/04/19 11:25:16;;;;;;;39.90;5.60;;;;;;;33.37;19.12;99918.56;108166;1254;60289;-68
2023/04/19 11:27:49;;;;;;;41.40;4.70;;;;;;;33.35;19.38;99925.14;108218;1253;61417;-67
2023/04/19 11:30:27;;;;;;;35.00;5.70;;;;;;;33.42;19.34;99922.05;108088;1257;73723;-68
2023/04/19 11:32:55;;;;;;;35.70;5.40;;;;;;;33.56;19.20;99916.83;108112;1254;62479;-68
2023/04/19 11:35:25;;;;;;;24.90;4.30;;;;;;;33.76;19.16;99917.10;108194;1254;65032;-68